Archival Weather

Abadan

Abadan, Iran (OIAA)

Report from: Wednesday, December 6, 2023 7:00 AM UTC
Current time: Sunday, February 25, 2024 10:20 PM UTC

Current weather – Weather history – Daily summaries
Weather forecast

Temperature21.0°C (69.8°F)
Dew point8.0°C (46.4°F)
Winds 4 kts (2.1 m/s, 4.6 mph) Northwest (320°)
Visibility3.7 mi. (6 km)
Altimeter30.06 in.Hg (1018 mB)
Relative humidity43 %
Density altitude696 ft. (212 m)
Flight conditions Marginal Visual Meteorological Conditions
Raw dataOIAA 060700Z 32004KT 6000 NSC 21/08 Q1018
An error has occurred. This application may no longer respond until reloaded. Reload 🗙